Time;durP1;ratioP1;P1;durP2;ratioP2;P2;SDS_P1;SDS_P2;PMS_P1;PMS_P2;Temp;Humidity;BMP_temperature;BMP_pressure;BME280_temperature;BME280_humidity;BME280_pressure;Samples;Min_cycle;Max_cycle;Signal;HPM_P1;HPM_P2
2023/10/03 00:00:40;;;;;;;23.30;14.97;;;18.70;96.00;;;;;;5078193;28;20468;-60
2023/10/03 00:03:11;;;;;;;21.70;14.00;;;18.70;90.40;;;;;;5077518;28;20475;-59
2023/10/03 00:05:42;;;;;;;22.80;14.73;;;18.70;95.00;;;;;;5077717;28;20465;-60
2023/10/03 00:08:09;;;;;;;24.53;16.87;;;18.70;99.90;;;;;;5077457;28;20481;-59
2023/10/03 00:10:38;;;;;;;26.63;16.03;;;18.60;99.90;;;;;;5078194;28;20493;-59
2023/10/03 00:13:08;;;;;;;24.63;16.60;;;18.60;99.90;;;;;;5077759;28;20500;-60
2023/10/03 00:15:39;;;;;;;24.40;15.40;;;18.60;99.90;;;;;;5077688;28;20632;-59
2023/10/03 00:18:07;;;;;;;21.60;15.07;;;18.50;99.90;;;;;;5078054;28;20519;-59
2023/10/03 00:20:36;;;;;;;25.40;16.27;;;18.50;99.90;;;;;;5078108;28;20453;-59
2023/10/03 00:23:04;;;;;;;25.90;16.13;;;18.50;99.90;;;;;;5077837;28;20535;-59
2023/10/03 00:25:32;;;;;;;27.27;17.63;;;18.60;99.90;;;;;;5077466;28;20457;-59
2023/10/03 00:28:00;;;;;;;23.40;16.07;;;18.60;99.90;;;;;;5077983;28;20509;-59
2023/10/03 00:30:29;;;;;;;22.60;15.90;;;18.50;99.90;;;;;;5077978;28;20500;-59
2023/10/03 00:32:57;;;;;;;21.87;14.67;;;18.40;99.90;;;;;;5077504;28;20489;-59
2023/10/03 00:35:27;;;;;;;24.60;15.73;;;18.30;99.90;;;;;;5077805;28;20769;-59
2023/10/03 00:37:55;;;;;;;29.07;15.97;;;18.10;99.90;;;;;;5077856;28;20943;-59
2023/10/03 00:40:28;;;;;;;24.70;15.83;;;18.00;99.90;;;;;;5078062;28;20539;-59
2023/10/03 00:42:58;;;;;;;29.30;15.23;;;17.90;99.90;;;;;;5077434;28;20523;-59
2023/10/03 00:45:26;;;;;;;27.70;16.20;;;17.90;99.90;;;;;;5077557;28;20483;-60
2023/10/03 00:47:54;;;;;;;29.20;16.43;;;17.90;99.90;;;;;;5077559;28;20467;-60
2023/10/03 00:50:25;;;;;;;23.43;15.77;;;17.80;99.90;;;;;;5078974;28;20457;-59
2023/10/03 00:52:56;;;;;;;29.67;16.80;;;17.90;99.90;;;;;;5081311;28;20489;-59
2023/10/03 00:55:26;;;;;;;24.03;15.27;;;17.90;99.90;;;;;;5080980;28;20874;-59
2023/10/03 00:58:06;;;;;;;27.10;17.10;;;18.00;99.90;;;;;;5080673;28;20467;-60
2023/10/03 01:00:37;;;;;;;26.50;15.67;;;18.10;99.90;;;;;;5081472;28;20559;-59
2023/10/03 01:03:06;;;;;;;22.83;14.97;;;18.10;99.90;;;;;;5080153;28;20432;-59
2023/10/03 01:05:33;;;;;;;25.03;15.80;;;18.20;99.90;;;;;;5081081;28;20548;-59
2023/10/03 01:08:04;;;;;;;27.53;16.83;;;18.30;99.90;;;;;;5080641;28;20520;-60
2023/10/03 01:10:32;;;;;;;24.57;16.53;;;18.40;99.90;;;;;;5081537;28;20460;-59
2023/10/03 01:13:09;;;;;;;27.03;16.87;;;18.50;99.90;;;;;;5080819;28;20769;-59
2023/10/03 01:15:36;;;;;;;27.80;15.73;;;18.50;99.90;;;;;;5080584;28;20461;-59
2023/10/03 01:18:05;;;;;;;24.83;16.47;;;18.40;99.90;;;;;;5080845;28;20457;-60
2023/10/03 01:20:40;;;;;;;25.43;15.67;;;18.50;99.90;;;;;;5081177;28;20467;-59
2023/10/03 01:23:10;;;;;;;27.20;15.63;;;18.60;90.90;;;;;;5080516;28;20457;-59
2023/10/03 01:25:42;;;;;;;25.13;15.90;;;18.60;89.70;;;;;;5080663;28;20825;-60
2023/10/03 01:28:09;;;;;;;23.77;15.90;;;18.60;93.20;;;;;;5080939;28;20457;-59
2023/10/03 01:30:37;;;;;;;26.17;16.10;;;18.60;55.90;;;;;;5080992;28;20532;-59
2023/10/03 01:33:06;;;;;;;23.50;16.27;;;18.70;19.00;;;;;;5079685;28;20576;-59
2023/10/03 01:35:33;;;;;;;27.80;17.10;;;18.80;1.00;;;;;;5080795;28;20486;-59
2023/10/03 01:38:00;;;;;;;27.50;15.43;;;18.90;1.00;;;;;;5080548;28;20472;-60
2023/10/03 01:40:29;;;;;;;25.83;16.80;;;18.90;1.00;;;;;;5080527;28;20461;-58
2023/10/03 01:42:56;;;;;;;25.47;15.43;;;18.80;1.00;;;;;;5081007;28;20528;-60
2023/10/03 01:45:25;;;;;;;24.30;15.17;;;18.70;17.60;;;;;;5080567;28;20548;-60
2023/10/03 01:47:54;;;;;;;29.77;17.33;;;18.70;16.10;;;;;;5080025;28;20457;-59
2023/10/03 01:50:23;;;;;;;26.40;16.67;;;18.70;47.00;;;;;;5080793;28;20496;-60
2023/10/03 01:52:51;;;;;;;27.33;16.00;;;18.70;10.80;;;;;;5080368;28;20489;-60
2023/10/03 01:55:19;;;;;;;22.77;14.77;;;18.50;48.70;;;;;;5079543;28;20461;-59
2023/10/03 01:57:48;;;;;;;23.20;14.43;;;18.50;91.10;;;;;;5080002;28;20886;-60
2023/10/03 02:00:24;;;;;;;24.40;15.87;;;18.40;99.90;;;;;;5080287;28;20544;-60
2023/10/03 02:02:52;;;;;;;22.93;15.33;;;18.30;99.90;;;;;;5080121;28;20506;-59
2023/10/03 02:05:22;;;;;;;24.80;16.80;;;18.30;99.90;;;;;;5079740;28;20913;-59
2023/10/03 02:07:51;;;;;;;23.23;15.33;;;18.30;99.90;;;;;;5079922;28;20485;-60
2023/10/03 02:10:18;;;;;;;23.53;16.70;;;18.30;99.90;;;;;;5080421;28;20558;-59
2023/10/03 02:12:50;;;;;;;27.53;18.37;;;18.30;99.90;;;;;;5080169;28;20982;-60
2023/10/03 02:15:20;;;;;;;26.20;17.53;;;18.20;99.90;;;;;;5079766;28;20834;-60
2023/10/03 02:17:50;;;;;;;26.83;18.57;;;18.20;99.90;;;;;;5079838;28;20491;-60
2023/10/03 02:20:20;;;;;;;29.47;21.47;;;18.20;99.90;;;;;;5079988;28;20464;-60
2023/10/03 02:22:53;;;;;;;28.47;20.10;;;18.20;99.90;;;;;;5079613;28;20428;-59
2023/10/03 02:25:22;;;;;;;32.50;21.10;;;18.30;99.90;;;;;;5079908;28;20443;-60
2023/10/03 02:27:53;;;;;;;28.63;19.47;;;18.40;99.90;;;;;;5079537;28;20457;-60
2023/10/03 02:30:23;;;;;;;32.67;20.90;;;18.40;81.00;;;;;;5079745;28;20886;-59
2023/10/03 02:32:53;;;;;;;27.47;18.47;;;18.40;72.60;;;;;;5079343;28;20587;-60
2023/10/03 02:35:22;;;;;;;25.70;17.93;;;18.40;64.10;;;;;;5079666;28;20746;-60
2023/10/03 02:37:51;;;;;;;27.73;18.67;;;18.50;42.50;;;;;;5079861;28;20512;-60
2023/10/03 02:40:22;;;;;;;26.00;16.30;;;18.60;25.10;;;;;;5080145;28;20461;-60
2023/10/03 02:42:52;;;;;;;28.30;16.47;;;18.60;24.60;;;;;;5079860;28;20477;-60
2023/10/03 02:45:22;;;;;;;26.33;17.13;;;18.70;1.00;;;;;;5079261;28;20487;-60
2023/10/03 02:47:50;;;;;;;24.17;15.10;;;18.70;1.00;;;;;;5079408;28;20484;-59
2023/10/03 02:50:18;;;;;;;22.13;14.03;;;18.90;1.00;;;;;;5078866;28;20457;-58
2023/10/03 02:52:46;;;;;;;23.27;15.20;;;18.90;1.00;;;;;;5078863;28;20499;-59
2023/10/03 02:55:16;;;;;;;26.97;15.47;;;19.00;1.00;;;;;;5079167;28;20457;-59
2023/10/03 02:57:44;;;;;;;25.17;15.80;;;19.00;1.00;;;;;;5079196;28;20504;-59
2023/10/03 03:00:15;;;;;;;22.40;15.13;;;19.00;1.00;;;;;;5078840;28;20463;-59
2023/10/03 03:02:42;;;;;;;24.07;14.80;;;18.90;1.00;;;;;;5079362;28;20511;-60
2023/10/03 03:05:15;;;;;;;21.37;14.03;;;18.90;1.00;;;;;;5079034;28;20464;-59
2023/10/03 03:07:44;;;;;;;21.80;13.90;;;18.90;1.00;;;;;;5078478;28;20542;-59
2023/10/03 03:10:14;;;;;;;23.37;14.53;;;19.00;1.00;;;;;;5079292;28;20552;-60
2023/10/03 03:12:43;;;;;;;22.77;14.87;;;19.00;1.00;;;;;;5078429;28;20485;-60
2023/10/03 03:15:17;;;;;;;22.43;14.40;;;19.10;1.00;;;;;;5078973;28;20897;-60
2023/10/03 03:17:47;;;;;;;23.37;13.80;;;19.10;1.00;;;;;;5078758;28;20555;-60
2023/10/03 03:20:20;;;;;;;20.30;13.10;;;19.20;1.00;;;;;;5077972;28;20465;-60
2023/10/03 03:22:48;;;;;;;23.37;14.07;;;19.20;1.00;;;;;;5079081;28;20959;-60
2023/10/03 03:25:24;;;;;;;22.80;13.63;;;19.20;1.00;;;;;;5078635;28;20457;-60
2023/10/03 03:27:54;;;;;;;22.47;13.80;;;19.30;1.00;;;;;;5078861;28;20492;-60
2023/10/03 03:30:35;;;;;;;18.50;13.10;;;19.30;1.00;;;;;;5078910;28;20453;-60
2023/10/03 03:33:06;;;;;;;23.37;13.47;;;19.20;1.00;;;;;;5078584;28;20614;-60
2023/10/03 03:35:39;;;;;;;26.30;14.07;;;19.20;1.00;;;;;;5078416;28;20457;-60
2023/10/03 03:38:15;;;;;;;20.37;13.53;;;19.30;1.00;;;;;;5078925;28;20462;-59
2023/10/03 03:40:45;;;;;;;22.53;13.00;;;19.30;1.00;;;;;;5079046;28;20460;-60
2023/10/03 03:43:16;;;;;;;19.03;12.70;;;19.30;1.00;;;;;;5078367;28;20495;-59
2023/10/03 03:45:45;;;;;;;23.57;13.97;;;19.40;1.00;;;;;;5078899;28;20461;-60
2023/10/03 03:48:13;;;;;;;22.20;14.97;;;19.40;1.00;;;;;;5078825;28;20458;-60
2023/10/03 03:50:40;;;;;;;18.50;13.10;;;19.50;99.90;;;;;;5078681;28;20460;-60
2023/10/03 03:53:07;;;;;;;22.53;14.00;;;19.60;99.90;;;;;;5078085;28;20577;-60
2023/10/03 03:55:36;;;;;;;22.17;13.63;;;19.50;99.90;;;;;;5078139;28;20733;-59
2023/10/03 03:58:07;;;;;;;20.77;13.70;;;19.60;99.90;;;;;;5078178;28;20730;-59
2023/10/03 04:00:37;;;;;;;26.47;13.87;;;19.60;99.90;;;;;;5078838;28;20552;-60
2023/10/03 04:03:09;;;;;;;22.77;13.03;;;19.60;99.90;;;;;;5078510;28;20457;-60
2023/10/03 04:05:36;;;;;;;23.23;13.43;;;19.60;99.90;;;;;;5078169;28;20468;-60
2023/10/03 04:08:04;;;;;;;17.90;12.67;;;19.60;99.90;;;;;;5078014;28;20492;-60
2023/10/03 04:10:33;;;;;;;16.70;11.50;;;19.60;99.90;;;;;;5078980;28;20462;-60
2023/10/03 04:13:04;;;;;;;18.93;12.47;;;19.70;99.90;;;;;;5078413;28;20493;-60
2023/10/03 04:15:32;;;;;;;19.37;13.93;;;19.70;99.90;;;;;;5078439;28;20917;-60
2023/10/03 04:17:59;;;;;;;18.60;12.00;;;19.70;99.90;;;;;;5078069;28;20480;-59
2023/10/03 04:20:30;;;;;;;21.70;13.20;;;19.60;99.90;;;;;;5078572;28;20468;-60
2023/10/03 04:22:58;;;;;;;22.73;13.83;;;19.60;99.90;;;;;;5077831;28;20770;-60
2023/10/03 04:25:26;;;;;;;20.97;12.93;;;19.60;99.90;;;;;;5081763;28;20740;-58
2023/10/03 04:27:55;;;;;;;19.27;12.93;;;19.60;99.90;;;;;;5082472;28;20461;-60
2023/10/03 04:30:25;;;;;;;23.63;13.70;;;19.60;99.90;;;;;;5082257;28;20471;-60
2023/10/03 04:32:53;;;;;;;19.57;12.97;;;19.60;99.90;;;;;;5081955;28;20507;-60
2023/10/03 04:35:21;;;;;;;18.97;12.20;;;19.60;99.90;;;;;;5082443;28;20489;-60
2023/10/03 04:37:51;;;;;;;18.60;13.37;;;19.60;99.90;;;;;;5082326;28;20457;-60
2023/10/03 04:40:22;;;;;;;22.57;13.53;;;19.60;99.90;;;;;;5082372;28;20460;-60
2023/10/03 04:42:50;;;;;;;20.73;12.90;;;19.60;99.90;;;;;;5082731;28;20461;-60
2023/10/03 04:45:19;;;;;;;18.83;12.10;;;19.60;99.90;;;;;;5081862;28;20461;-60
2023/10/03 04:47:47;;;;;;;18.90;12.63;;;19.60;99.90;;;;;;5082092;28;20461;-60
2023/10/03 04:50:17;;;;;;;22.63;12.90;;;19.50;99.90;;;;;;5081966;28;20463;-60
2023/10/03 04:52:48;;;;;;;20.17;13.40;;;19.60;99.90;;;;;;5081838;28;20482;-60
2023/10/03 04:55:17;;;;;;;19.77;13.87;;;19.60;99.90;;;;;;5081445;28;20445;-60
2023/10/03 04:57:45;;;;;;;20.00;12.73;;;19.50;99.90;;;;;;5080802;28;20539;-60
2023/10/03 05:00:15;;;;;;;16.90;11.90;;;19.50;99.90;;;;;;5081915;28;20909;-60
2023/10/03 05:02:47;;;;;;;18.40;12.00;;;19.50;99.90;;;;;;5082389;28;20510;-60
2023/10/03 05:05:17;;;;;;;18.73;13.37;;;19.60;99.90;;;;;;5081504;28;20495;-59
2023/10/03 05:07:44;;;;;;;17.87;11.10;;;19.60;99.90;;;;;;5081028;28;20477;-60
2023/10/03 05:10:11;;;;;;;18.50;12.00;;;19.60;99.90;;;;;;5082348;28;20475;-60
2023/10/03 05:12:40;;;;;;;17.57;12.73;;;19.60;99.90;;;;;;5081594;28;20518;-60
2023/10/03 05:15:08;;;;;;;17.03;10.90;;;19.70;99.90;;;;;;5080944;28;20497;-60
2023/10/03 05:17:36;;;;;;;18.77;11.50;;;19.70;99.90;;;;;;5081669;28;20491;-60
2023/10/03 05:20:04;;;;;;;19.97;12.20;;;19.70;99.90;;;;;;5081455;28;20785;-60
2023/10/03 05:22:33;;;;;;;18.90;11.53;;;19.80;99.90;;;;;;5081565;28;20511;-60
2023/10/03 05:25:02;;;;;;;20.13;12.60;;;19.80;99.90;;;;;;5080761;28;20871;-60
2023/10/03 05:27:29;;;;;;;18.30;11.83;;;19.70;99.90;;;;;;5081246;28;20893;-60
2023/10/03 05:30:03;;;;;;;18.20;11.80;;;19.70;99.90;;;;;;5080992;28;20467;-60
2023/10/03 05:32:30;;;;;;;21.10;12.93;;;19.80;99.90;;;;;;5081495;28;20920;-60
2023/10/03 05:34:58;;;;;;;18.10;11.60;;;19.70;99.90;;;;;;5080875;28;20784;-60
2023/10/03 05:37:25;;;;;;;19.47;12.33;;;19.70;99.90;;;;;;5080215;28;20491;-60
2023/10/03 05:39:53;;;;;;;17.90;11.40;;;19.80;99.90;;;;;;5080863;28;20484;-60
2023/10/03 05:42:20;;;;;;;19.70;11.97;;;19.80;99.90;;;;;;5080945;28;20535;-60
2023/10/03 05:44:47;;;;;;;16.87;11.80;;;19.80;99.90;;;;;;5081366;28;20457;-60
2023/10/03 05:47:16;;;;;;;17.27;11.80;;;19.80;1.00;;;;;;5080890;28;20467;-60
2023/10/03 05:49:44;;;;;;;16.03;11.50;;;19.80;1.00;;;;;;5080289;28;20579;-60
2023/10/03 05:52:11;;;;;;;19.03;11.50;;;19.90;1.00;;;;;;5079875;28;20464;-61
2023/10/03 05:54:38;;;;;;;18.40;11.40;;;20.00;1.00;;;;;;5080142;28;20580;-60
2023/10/03 05:57:05;;;;;;;14.57;10.03;;;20.00;1.00;;;;;;5080365;28;20461;-60
2023/10/03 05:59:33;;;;;;;17.90;11.43;;;20.10;1.00;;;;;;5080767;28;20941;-60
2023/10/03 06:02:00;;;;;;;20.73;12.70;;;20.10;99.90;;;;;;5080791;28;20457;-60
2023/10/03 06:04:30;;;;;;;18.83;11.33;;;20.10;1.00;;;;;;5080770;28;20556;-60
2023/10/03 06:06:58;;;;;;;15.63;11.20;;;20.10;1.00;;;;;;5080044;28;20801;-60
2023/10/03 06:09:26;;;;;;;18.63;11.23;;;20.10;1.00;;;;;;5080142;28;20457;-60
2023/10/03 06:11:53;;;;;;;17.57;11.93;;;20.20;1.00;;;;;;5080061;28;20929;-60
2023/10/03 06:14:21;;;;;;;15.00;10.70;;;20.20;1.00;;;;;;5080452;28;20550;-60
2023/10/03 06:16:48;;;;;;;17.50;11.97;;;20.10;1.00;;;;;;5080279;28;20450;-60
2023/10/03 06:19:15;;;;;;;15.27;11.00;;;20.10;1.00;;;;;;5080030;28;20484;-60
2023/10/03 06:21:44;;;;;;;17.37;12.23;;;20.10;1.00;;;;;;5079971;28;20552;-61
2023/10/03 06:24:11;;;;;;;16.50;10.20;;;20.10;1.00;;;;;;5079526;28;20457;-58
2023/10/03 06:26:39;;;;;;;14.80;9.90;;;20.10;1.00;;;;;;5079726;28;20461;-60
2023/10/03 06:29:06;;;;;;;13.67;9.53;;;20.10;1.00;;;;;;5079037;28;20465;-60
2023/10/03 06:31:34;;;;;;;16.73;10.83;;;20.20;1.00;;;;;;5079320;28;20471;-61
2023/10/03 06:34:02;;;;;;;16.13;10.80;;;20.20;1.00;;;;;;5078579;28;20758;-60
2023/10/03 06:36:29;;;;;;;15.33;10.00;;;20.10;1.00;;;;;;5080007;28;20864;-62
2023/10/03 06:38:59;;;;;;;15.03;9.97;;;20.10;1.00;;;;;;5079136;28;20457;-60
2023/10/03 06:41:26;;;;;;;14.73;9.60;;;20.10;1.00;;;;;;5079477;28;20532;-60
2023/10/03 06:43:54;;;;;;;12.67;10.10;;;20.10;1.00;;;;;;5079163;28;20462;-62
2023/10/03 06:46:21;;;;;;;19.23;10.53;;;20.10;1.00;;;;;;5079240;28;20437;-66
2023/10/03 06:48:51;;;;;;;14.90;10.60;;;20.10;1.00;;;;;;5078531;28;20453;-62
2023/10/03 06:51:19;;;;;;;13.60;10.00;;;20.10;1.00;;;;;;5078428;28;20538;-60
2023/10/03 06:53:47;;;;;;;21.77;10.17;;;20.00;1.00;;;;;;5078960;28;20465;-61
2023/10/03 06:56:16;;;;;;;17.67;10.33;;;20.00;1.00;;;;;;5078765;28;20465;-60
2023/10/03 06:58:43;;;;;;;15.73;10.87;;;20.00;1.00;;;;;;5078411;28;20497;-60
2023/10/03 07:01:11;;;;;;;15.67;9.90;;;20.00;1.00;;;;;;5079281;28;20894;-60
2023/10/03 07:03:40;;;;;;;16.03;8.73;;;20.00;1.00;;;;;;5077863;28;20958;-60
2023/10/03 07:06:07;;;;;;;14.17;9.10;;;19.90;1.00;;;;;;5078815;28;20954;-60
2023/10/03 07:08:35;;;;;;;10.80;9.10;;;19.90;1.00;;;;;;5078234;28;20515;-62
2023/10/03 07:11:02;;;;;;;14.03;8.40;;;19.80;1.00;;;;;;5078537;28;20457;-60
2023/10/03 07:13:31;;;;;;;12.87;8.80;;;19.80;1.00;;;;;;5078041;28;20468;-60
2023/10/03 07:15:58;;;;;;;15.67;9.27;;;19.80;1.00;;;;;;5077563;28;20566;-60
2023/10/03 07:18:26;;;;;;;15.20;9.00;;;19.80;1.00;;;;;;5077815;28;20503;-60
2023/10/03 07:20:55;;;;;;;13.97;8.93;;;19.70;29.30;;;;;;5077286;28;20461;-59
2023/10/03 07:23:23;;;;;;;17.20;10.53;;;19.70;55.00;;;;;;5077612;28;20489;-60
2023/10/03 07:25:51;;;;;;;11.40;7.90;;;19.70;99.90;;;;;;5077411;28;20493;-61
2023/10/03 07:28:18;;;;;;;14.07;8.50;;;19.70;99.90;;;;;;5077938;28;20461;-59
2023/10/03 07:30:47;;;;;;;15.40;9.00;;;19.60;99.90;;;;;;5078582;28;20491;-61
2023/10/03 07:33:14;;;;;;;12.07;8.40;;;19.60;99.90;;;;;;5078471;28;20543;-60
2023/10/03 07:35:44;;;;;;;16.30;8.33;;;19.60;99.90;;;;;;5077317;28;20614;-58
2023/10/03 07:38:12;;;;;;;15.87;8.60;;;19.50;99.90;;;;;;5076714;28;20465;-63
2023/10/03 07:40:40;;;;;;;14.97;8.97;;;19.40;99.90;;;;;;5077273;28;20507;-63
2023/10/03 07:43:09;;;;;;;12.90;7.80;;;19.40;99.90;;;;;;5076374;28;20465;-59
2023/10/03 07:45:37;;;;;;;15.00;8.73;;;19.40;99.90;;;;;;5077476;28;20740;-60
2023/10/03 07:48:07;;;;;;;14.60;8.97;;;19.40;99.90;;;;;;5077841;28;20483;-60
2023/10/03 07:50:37;;;;;;;12.30;8.33;;;19.40;99.90;;;;;;5077533;28;20543;-61
2023/10/03 07:53:05;;;;;;;13.60;7.70;;;19.40;99.90;;;;;;5077513;28;20468;-60
2023/10/03 07:55:35;;;;;;;14.07;8.30;;;19.40;99.90;;;;;;5078159;28;20493;-60
2023/10/03 07:58:02;;;;;;;11.70;8.20;;;19.50;99.90;;;;;;5078279;28;20843;-61
2023/10/03 08:00:29;;;;;;;12.20;7.90;;;19.60;99.90;;;;;;5077821;28;20489;-60
2023/10/03 08:02:58;;;;;;;10.40;8.23;;;19.50;99.90;;;;;;5077574;28;20556;-60
2023/10/03 08:05:28;;;;;;;15.10;7.77;;;19.60;99.90;;;;;;5077907;28;20458;-62
2023/10/03 08:07:56;;;;;;;9.40;6.97;;;19.60;99.90;;;;;;5077675;28;20495;-60
2023/10/03 08:10:28;;;;;;;11.33;6.70;;;19.60;99.90;;;;;;5078233;28;20439;-61
2023/10/03 08:12:57;;;;;;;10.33;6.53;;;19.60;99.90;;;;;;5077541;28;20461;-60
2023/10/03 08:15:31;;;;;;;10.60;6.50;;;19.60;99.90;;;;;;5077906;28;20866;-61
2023/10/03 08:17:59;;;;;;;8.57;5.57;;;19.60;99.90;;;;;;5077839;28;20893;-62
2023/10/03 08:20:30;;;;;;;7.80;6.00;;;19.70;99.90;;;;;;5077742;28;20539;-60
2023/10/03 08:23:03;;;;;;;13.00;5.90;;;19.60;99.90;;;;;;5078153;28;20514;-61
2023/10/03 08:25:33;;;;;;;9.47;5.93;;;19.50;99.90;;;;;;5077784;28;20479;-60
2023/10/03 08:28:01;;;;;;;8.60;5.80;;;19.60;99.90;;;;;;5078045;28;20469;-61
2023/10/03 08:30:29;;;;;;;9.77;6.13;;;19.60;99.10;;;;;;5078281;28;20461;-60
2023/10/03 08:32:57;;;;;;;9.17;6.50;;;19.80;95.00;;;;;;5077857;28;20457;-60
2023/10/03 08:35:37;;;;;;;8.37;5.90;;;19.90;63.20;;;;;;5077159;28;20539;-60
2023/10/03 08:38:08;;;;;;;7.37;6.03;;;20.00;13.20;;;;;;5077636;28;20878;-64
2023/10/03 08:40:39;;;;;;;7.17;5.80;;;20.10;1.00;;;;;;5077929;28;20543;-60
2023/10/03 08:43:09;;;;;;;10.07;5.93;;;20.10;1.00;;;;;;5077590;28;20818;-61
2023/10/03 08:45:41;;;;;;;11.13;6.10;;;20.10;1.00;;;;;;5077483;28;20457;-60
2023/10/03 08:48:09;;;;;;;6.50;5.80;;;20.00;1.00;;;;;;5077920;28;20744;-60
2023/10/03 08:50:46;;;;;;;11.00;6.20;;;20.00;1.00;;;;;;5076795;28;20481;-61
2023/10/03 08:53:26;;;;;;;7.33;5.50;;;19.90;1.00;;;;;;5077694;28;20461;-60
2023/10/03 08:55:57;;;;;;;9.93;6.77;;;19.90;1.00;;;;;;5078022;28;20493;-60
2023/10/03 08:58:29;;;;;;;7.10;6.27;;;19.80;2.70;;;;;;5077174;28;20461;-60
2023/10/03 09:01:01;;;;;;;10.20;6.80;;;19.80;22.40;;;;;;5077113;28;20488;-59
2023/10/03 09:03:42;;;;;;;6.57;5.93;;;19.60;17.10;;;;;;5077092;28;20461;-60
2023/10/03 09:06:19;;;;;;;8.60;5.80;;;19.60;88.70;;;;;;5059110;28;20536;-60
2023/10/03 09:08:50;;;;;;;8.27;5.80;;;19.60;92.40;;;;;;5055960;28;22447;-60
2023/10/03 09:11:19;;;;;;;8.13;6.77;;;19.70;82.60;;;;;;5057199;28;20465;-60
2023/10/03 09:13:49;;;;;;;7.07;6.03;;;19.70;33.40;;;;;;5060045;28;20461;-60
2023/10/03 09:16:19;;;;;;;8.10;6.00;;;19.70;99.90;;;;;;5060645;28;20592;-59
2023/10/03 09:18:56;;;;;;;9.13;6.33;;;19.80;47.40;;;;;;5060597;28;20458;-60
2023/10/03 09:21:27;;;;;;;8.23;5.90;;;19.90;28.20;;;;;;5060453;28;20515;-61
2023/10/03 09:24:01;;;;;;;8.63;5.60;;;19.80;45.90;;;;;;5061278;28;20486;-61
2023/10/03 09:26:42;;;;;;;6.70;5.60;;;19.90;10.70;;;;;;5061053;28;20531;-61
2023/10/03 09:29:18;;;;;;;8.40;6.10;;;19.90;1.00;;;;;;5060777;28;20505;-60
2023/10/03 09:31:47;;;;;;;8.87;6.50;;;19.90;4.30;;;;;;5061181;28;20835;-61
2023/10/03 09:34:16;;;;;;;6.97;5.80;;;20.00;1.00;;;;;;5060961;28;20458;-67
2023/10/03 09:36:44;;;;;;;8.80;6.07;;;20.00;1.00;;;;;;5060586;28;20525;-60
2023/10/03 09:39:20;;;;;;;6.57;5.87;;;20.00;1.00;;;;;;5060533;28;20509;-61
2023/10/03 09:41:55;;;;;;;8.20;5.83;;;20.00;1.00;;;;;;5061107;28;20515;-62
2023/10/03 09:44:29;;;;;;;10.50;5.80;;;20.20;1.00;;;;;;5060049;28;20505;-61
2023/10/03 09:47:03;;;;;;;5.97;4.97;;;20.40;1.00;;;;;;5060043;28;20534;-62
2023/10/03 09:49:36;;;;;;;11.93;6.13;;;20.40;1.00;;;;;;5060200;28;20461;-61
2023/10/03 09:52:09;;;;;;;10.47;5.70;;;20.50;1.00;;;;;;5060351;28;20469;-60
2023/10/03 09:54:39;;;;;;;7.57;6.10;;;20.70;1.00;;;;;;5060003;28;20613;-61
2023/10/03 09:57:18;;;;;;;6.13;5.43;;;20.90;1.00;;;;;;5058977;28;20432;-60
2023/10/03 09:59:46;;;;;;;5.97;5.27;;;21.00;1.00;;;;;;5060181;28;20458;-62
2023/10/03 10:02:16;;;;;;;10.70;5.60;;;21.00;1.00;;;;;;5060404;28;20459;-61
2023/10/03 10:04:46;;;;;;;8.30;5.67;;;20.80;1.00;;;;;;5060395;28;20903;-60
2023/10/03 10:07:29;;;;;;;7.30;4.80;;;20.60;1.00;;;;;;5059776;28;20485;-62
2023/10/03 10:10:07;;;;;;;7.60;5.37;;;20.40;1.00;;;;;;5060056;28;20517;-60
2023/10/03 10:12:37;;;;;;;8.90;5.93;;;20.40;1.00;;;;;;5060317;28;20492;-62
2023/10/03 10:15:17;;;;;;;8.23;5.40;;;20.40;1.00;;;;;;5059133;28;20529;-60
2023/10/03 10:17:51;;;;;;;6.40;5.60;;;20.40;1.00;;;;;;5059883;28;20470;-61
2023/10/03 10:20:27;;;;;;;7.00;5.13;;;20.20;1.00;;;;;;5059993;28;20463;-61
2023/10/03 10:23:13;;;;;;;8.27;5.47;;;20.10;1.00;;;;;;5059038;28;20883;-60
2023/10/03 10:25:51;;;;;;;8.47;5.63;;;20.00;1.00;;;;;;5059839;28;20458;-61
2023/10/03 10:28:26;;;;;;;7.73;5.87;;;19.90;1.00;;;;;;5060099;28;20461;-60
2023/10/03 10:31:21;;;;;;;7.33;5.30;;;19.80;1.00;;;;;;5059306;28;20457;-60
2023/10/03 10:33:50;;;;;;;8.07;5.70;;;19.80;1.00;;;;;;5059527;28;20883;-60
2023/10/03 10:36:19;;;;;;;8.77;5.07;;;19.60;36.20;;;;;;5059538;28;20577;-62
2023/10/03 10:38:56;;;;;;;7.63;5.60;;;19.70;34.00;;;;;;5059742;28;20553;-64
2023/10/03 10:41:29;;;;;;;8.33;5.60;;;19.60;42.40;;;;;;5059516;28;20476;-60
2023/10/03 10:44:06;;;;;;;7.20;5.10;;;19.60;85.10;;;;;;5059330;28;20486;-61
2023/10/03 10:46:36;;;;;;;8.00;5.30;;;19.70;56.00;;;;;;5057364;28;20461;-59
2023/10/03 10:49:06;;;;;;;11.47;5.90;;;19.60;94.20;;;;;;5057835;28;20548;-61
2023/10/03 10:51:36;;;;;;;7.97;6.40;;;19.60;99.90;;;;;;5057660;28;20512;-60
2023/10/03 10:54:05;;;;;;;9.20;5.70;;;19.30;99.90;;;;;;5058852;28;20564;-60
2023/10/03 10:56:34;;;;;;;6.67;5.60;;;19.20;99.90;;;;;;5057450;28;20486;-58
2023/10/03 10:59:05;;;;;;;8.67;6.70;;;19.10;99.90;;;;;;5059043;28;20511;-61
2023/10/03 11:01:39;;;;;;;7.50;6.80;;;19.00;99.90;;;;;;5059301;28;20466;-60
2023/10/03 11:04:07;;;;;;;8.67;6.20;;;19.00;99.90;;;;;;5058721;28;20432;-62
2023/10/03 11:06:35;;;;;;;22.23;5.97;;;18.80;1.00;;;;;;5056284;28;20458;-69
2023/10/03 11:09:03;;;;;;;6.67;4.40;;;18.20;1.00;;;;;;5057699;28;20501;-63
2023/10/03 11:11:39;;;;;;;6.80;4.77;;;17.80;1.00;;;;;;5057357;28;20454;-66
2023/10/03 11:14:07;;;;;;;7.30;5.60;;;17.50;99.90;;;;;;5058795;28;20524;-65
2023/10/03 11:16:34;;;;;;;5.87;5.10;;;17.50;99.90;;;;;;5059274;28;20893;-67
2023/10/03 11:19:04;;;;;;;6.57;5.83;;;17.40;99.90;;;;;;5075679;28;20556;-70
2023/10/03 11:21:33;;;;;;;7.90;6.13;;;17.30;99.90;;;;;;5078097;28;20471;-68
2023/10/03 11:24:14;;;;;;;9.90;7.00;;;17.30;99.90;;;;;;5077714;28;20468;-64
2023/10/03 11:26:51;;;;;;;8.30;6.77;;;17.20;99.90;;;;;;5076808;28;20750;-65
2023/10/03 11:29:39;;;;;;;12.63;7.50;;;17.30;1.00;;;;;;5076678;28;20560;-65
2023/10/03 11:32:20;;;;;;;12.30;8.03;;;17.20;1.00;;;;;;5078022;28;20715;-71
2023/10/03 11:34:49;;;;;;;8.93;7.90;;;17.10;1.00;;;;;;5075946;28;20778;-67
2023/10/03 11:37:33;;;;;;;10.50;8.30;;;17.20;44.20;;;;;;5076677;28;20960;-66
2023/10/03 11:40:10;;;;;;;10.10;8.37;;;17.20;99.90;;;;;;5077683;28;20496;-63
2023/10/03 11:42:50;;;;;;;10.27;8.80;;;17.20;99.90;;;;;;5077511;28;20461;-62
2023/10/03 11:45:21;;;;;;;11.50;9.87;;;17.30;99.90;;;;;;5077450;28;20485;-62
2023/10/03 11:47:59;;;;;;;11.47;10.30;;;17.40;99.90;;;;;;5077458;28;20485;-62
2023/10/03 11:50:27;;;;;;;11.27;10.20;;;17.40;1.00;;;;;;5076750;28;20826;-62
2023/10/03 11:52:57;;;;;;;10.80;9.40;;;17.60;1.00;;;;;;5076899;28;20493;-61
2023/10/03 11:55:24;;;;;;;8.97;8.07;;;17.50;1.00;;;;;;5077128;28;20493;-60
2023/10/03 11:57:53;;;;;;;8.97;7.57;;;17.60;1.00;;;;;;5077364;28;20492;-61
2023/10/03 12:00:24;;;;;;;6.60;5.90;;;17.70;99.90;;;;;;5077614;28;20540;-61
2023/10/03 12:02:52;;;;;;;6.20;5.40;;;17.60;99.90;;;;;;5077136;28;20468;-61
2023/10/03 12:05:22;;;;;;;6.60;5.90;;;17.60;39.50;;;;;;5076892;28;20515;-60
2023/10/03 12:07:50;;;;;;;4.90;4.20;;;17.40;1.00;;;;;;5073505;28;20584;-61
2023/10/03 12:10:19;;;;;;;5.97;3.70;;;17.30;1.00;;;;;;5076178;28;20515;-60
2023/10/03 12:12:49;;;;;;;5.60;3.80;;;17.30;1.00;;;;;;5075768;28;20457;-61
2023/10/03 12:15:20;;;;;;;4.60;3.03;;;17.20;1.00;;;;;;5075157;28;20485;-60
2023/10/03 12:17:48;;;;;;;6.90;3.50;;;17.10;1.00;;;;;;5075846;28;20457;-60
2023/10/03 12:20:18;;;;;;;4.67;3.70;;;16.90;1.00;;;;;;5075455;28;20493;-60
2023/10/03 12:22:46;;;;;;;4.97;4.30;;;16.90;1.00;;;;;;5075587;28;20461;-60
2023/10/03 12:25:16;;;;;;;6.70;5.13;;;16.90;1.00;;;;;;5075225;28;20495;-61
2023/10/03 12:27:44;;;;;;;7.90;4.70;;;16.70;1.00;;;;;;5075283;28;20526;-61
2023/10/03 12:30:14;;;;;;;7.07;4.00;;;16.70;1.00;;;;;;5074676;28;20546;-61
2023/10/03 12:32:45;;;;;;;6.07;4.57;;;16.60;1.00;;;;;;5073869;28;20468;-62
2023/10/03 12:35:13;;;;;;;6.33;4.53;;;16.50;1.00;;;;;;5074224;28;20963;-61
2023/10/03 12:37:44;;;;;;;6.23;4.10;;;16.50;13.40;;;;;;5074104;28;20532;-64
2023/10/03 12:40:17;;;;;;;9.60;4.00;;;16.50;37.50;;;;;;5073977;28;20456;-61
2023/10/03 12:42:46;;;;;;;6.00;3.50;;;16.40;99.90;;;;;;5074340;28;20945;-63
2023/10/03 12:45:16;;;;;;;4.93;4.13;;;16.40;99.90;;;;;;5075861;28;20480;-63
2023/10/03 12:47:47;;;;;;;6.20;4.33;;;16.50;99.90;;;;;;5079620;28;20556;-68
2023/10/03 12:50:16;;;;;;;6.83;4.20;;;16.40;99.90;;;;;;5080262;28;20492;-71
2023/10/03 12:52:44;;;;;;;4.70;4.03;;;16.40;99.90;;;;;;5079620;28;20481;-67